Time;durP1;ratioP1;P1;durP2;ratioP2;P2;SDS_P1;SDS_P2;PMS_P1;PMS_P2;Temp;Humidity;BMP_temperature;BMP_pressure;BME280_temperature;BME280_humidity;BME280_pressure;Samples;Min_cycle;Max_cycle;Signal;HPM_P1;HPM_P2
2021/12/03 00:01:59;;;;;;;4.57;4.18;;;22.70;72.90;;;;;;6205508;28;84059;-61
2021/12/03 00:05:01;;;;;;;4.53;4.13;;;22.70;72.80;;;;;;6211758;28;84403;-61
2021/12/03 00:08:04;;;;;;;4.65;3.80;;;22.70;72.80;;;;;;6211299;28;84084;-61
2021/12/03 00:11:09;;;;;;;4.50;3.72;;;22.70;72.80;;;;;;6219557;28;83997;-61
2021/12/03 00:14:12;;;;;;;3.72;3.40;;;22.70;72.80;;;;;;6204293;28;84023;-61
2021/12/03 00:17:14;;;;;;;3.97;3.67;;;22.60;72.70;;;;;;6205009;28;83358;-61
2021/12/03 00:20:17;;;;;;;3.95;3.63;;;22.60;72.70;;;;;;6213109;28;82939;-62
2021/12/03 00:23:20;;;;;;;3.80;3.50;;;22.60;72.70;;;;;;6224137;28;83990;-61
2021/12/03 00:26:22;;;;;;;4.25;3.90;;;22.60;72.70;;;;;;6233672;28;85027;-61
2021/12/03 00:29:26;;;;;;;3.80;3.50;;;22.60;72.70;;;;;;6209868;28;84249;-61
2021/12/03 00:32:28;;;;;;;4.10;3.70;;;22.60;72.80;;;;;;6226020;28;84941;-61
2021/12/03 00:35:30;;;;;;;3.80;3.50;;;22.60;72.80;;;;;;6210535;28;83982;-61
2021/12/03 00:38:36;;;;;;;4.40;3.97;;;22.60;72.80;;;;;;6220863;28;84040;-61
2021/12/03 00:41:45;;;;;;;4.38;3.97;;;22.50;72.80;;;;;;6221588;28;84021;-61
2021/12/03 00:44:52;;;;;;;4.00;3.60;;;22.50;72.70;;;;;;6212229;28;84047;-62
2021/12/03 00:47:54;;;;;;;3.85;3.55;;;22.50;72.80;;;;;;6222006;28;82601;-61
2021/12/03 00:50:56;;;;;;;4.30;3.63;;;22.50;72.80;;;;;;6213445;28;84265;-61
2021/12/03 00:53:58;;;;;;;4.25;3.58;;;22.50;72.80;;;;;;6209884;28;84049;-62
2021/12/03 00:57:00;;;;;;;3.72;3.40;;;22.50;72.80;;;;;;6209220;28;84938;-61
2021/12/03 01:00:06;;;;;;;3.85;3.42;;;22.50;72.80;;;;;;6212637;28;82951;-61
2021/12/03 01:03:09;;;;;;;3.90;3.60;;;22.40;72.80;;;;;;6216190;28;83477;-62
2021/12/03 01:06:11;;;;;;;3.55;3.25;;;22.40;72.80;;;;;;6212341;28;84052;-61
2021/12/03 01:09:13;;;;;;;3.53;3.22;;;22.50;72.80;;;;;;6213541;28;84029;-61
2021/12/03 01:12:15;;;;;;;3.60;3.30;;;22.50;72.80;;;;;;6215755;28;82905;-61
2021/12/03 01:15:26;;;;;;;3.80;3.50;;;22.50;72.80;;;;;;6209030;28;82983;-61
2021/12/03 01:18:28;;;;;;;4.38;3.50;;;22.40;72.80;;;;;;6223715;28;82309;-62
2021/12/03 01:21:30;;;;;;;4.07;3.67;;;22.40;72.80;;;;;;6210997;28;84859;-61
2021/12/03 01:24:32;;;;;;;3.38;3.08;;;22.40;72.80;;;;;;6222123;28;83885;-62
2021/12/03 01:27:34;;;;;;;3.40;3.10;;;22.40;72.80;;;;;;6220018;28;85280;-61
2021/12/03 01:30:38;;;;;;;3.35;3.05;;;22.40;72.80;;;;;;6215290;28;83956;-61
2021/12/03 01:33:40;;;;;;;3.53;3.22;;;22.40;72.90;;;;;;6215235;28;83124;-62
2021/12/03 01:36:42;;;;;;;3.65;3.30;;;22.40;72.80;;;;;;6209305;28;82927;-61
2021/12/03 01:39:44;;;;;;;3.65;3.15;;;22.40;73.00;;;;;;6211467;28;82995;-61
2021/12/03 01:42:47;;;;;;;3.20;2.90;;;22.30;72.90;;;;;;6217946;28;84170;-62
2021/12/03 01:45:52;;;;;;;3.63;3.05;;;22.30;72.90;;;;;;6210807;28;83897;-61
2021/12/03 01:48:55;;;;;;;3.78;3.47;;;22.40;73.00;;;;;;6212031;28;83305;-62
2021/12/03 01:51:57;;;;;;;3.95;3.40;;;22.30;73.00;;;;;;6208961;28;83954;-61
2021/12/03 01:55:00;;;;;;;3.17;2.85;;;22.30;73.00;;;;;;6213414;28;84038;-61
2021/12/03 01:58:02;;;;;;;6.55;3.08;;;22.30;73.00;;;;;;6215986;28;85164;-61
2021/12/03 02:01:07;;;;;;;4.50;2.88;;;22.30;73.00;;;;;;6216552;28;82762;-61
2021/12/03 02:04:10;;;;;;;3.60;3.30;;;22.30;73.00;;;;;;6219198;28;83896;-62
2021/12/03 02:07:12;;;;;;;3.15;2.95;;;22.30;73.00;;;;;;6209120;28;83982;-62
2021/12/03 02:10:16;;;;;;;3.28;2.90;;;22.30;73.00;;;;;;6216665;28;84151;-61
2021/12/03 02:13:18;;;;;;;3.50;3.20;;;22.30;72.90;;;;;;6212402;28;82910;-61
2021/12/03 02:16:22;;;;;;;3.03;2.72;;;22.30;72.90;;;;;;6185943;28;84028;-61
2021/12/03 02:19:24;;;;;;;2.97;2.78;;;22.30;72.90;;;;;;6220218;28;82197;-62
2021/12/03 02:22:28;;;;;;;3.17;2.88;;;22.30;73.00;;;;;;6208917;28;83350;-61
2021/12/03 02:25:30;;;;;;;3.25;2.85;;;22.30;73.00;;;;;;6193760;28;82851;-62
2021/12/03 02:28:35;;;;;;;3.33;2.95;;;22.30;73.00;;;;;;6205596;28;84896;-61
2021/12/03 02:31:37;;;;;;;3.30;3.00;;;22.20;72.90;;;;;;6193859;28;84095;-61
2021/12/03 02:34:39;;;;;;;2.80;2.60;;;22.20;72.90;;;;;;6208233;28;84001;-61
2021/12/03 02:37:43;;;;;;;2.85;2.65;;;22.20;72.90;;;;;;6205410;28;84003;-62
2021/12/03 02:40:45;;;;;;;2.92;2.72;;;22.20;73.00;;;;;;6202070;28;82932;-62
2021/12/03 02:43:47;;;;;;;2.67;2.47;;;22.10;72.90;;;;;;6194050;28;84011;-61
2021/12/03 02:46:49;;;;;;;3.30;2.80;;;22.20;73.00;;;;;;6230521;28;83988;-61
2021/12/03 02:49:51;;;;;;;2.90;2.60;;;22.20;73.00;;;;;;6202259;28;83321;-62
2021/12/03 02:52:55;;;;;;;2.90;2.60;;;22.10;72.80;;;;;;6206264;28;84327;-62
2021/12/03 02:55:57;;;;;;;3.13;2.83;;;22.10;72.90;;;;;;6209878;28;84037;-58
2021/12/03 02:58:59;;;;;;;2.83;2.63;;;22.10;73.00;;;;;;6193024;28;83837;-59
2021/12/03 03:02:01;;;;;;;3.10;2.80;;;22.10;73.00;;;;;;6200395;28;84035;-59
2021/12/03 03:05:04;;;;;;;4.10;2.80;;;22.10;73.00;;;;;;6214175;28;84042;-59
2021/12/03 03:08:08;;;;;;;3.20;2.90;;;22.20;72.90;;;;;;6209660;28;84275;-59
2021/12/03 03:11:10;;;;;;;3.13;2.83;;;22.20;72.80;;;;;;6208424;28;83777;-59
2021/12/03 03:14:12;;;;;;;2.67;2.47;;;22.10;72.80;;;;;;6208622;28;83974;-58
2021/12/03 03:17:15;;;;;;;3.10;2.80;;;22.20;72.80;;;;;;6198607;28;83988;-59
2021/12/03 03:20:18;;;;;;;2.78;2.58;;;22.10;72.80;;;;;;6202932;28;83312;-59
2021/12/03 03:23:22;;;;;;;2.78;2.58;;;22.10;72.80;;;;;;6201626;28;84082;-59
2021/12/03 03:26:25;;;;;;;2.65;2.45;;;22.10;72.80;;;;;;6211449;28;84105;-59
2021/12/03 03:29:28;;;;;;;2.45;2.25;;;22.10;72.80;;;;;;6207628;28;84957;-62
2021/12/03 03:32:30;;;;;;;3.17;2.42;;;22.10;72.90;;;;;;6207409;28;84022;-61
2021/12/03 03:35:32;;;;;;;3.03;2.45;;;22.10;73.00;;;;;;6211724;28;84124;-62
2021/12/03 03:38:36;;;;;;;2.83;2.28;;;22.00;72.90;;;;;;6208249;28;84050;-62
2021/12/03 03:41:38;;;;;;;2.63;2.30;;;22.00;72.90;;;;;;6219594;28;82877;-62
2021/12/03 03:44:40;;;;;;;2.70;2.22;;;22.00;72.90;;;;;;6215350;28;84512;-62
2021/12/03 03:47:43;;;;;;;2.58;2.28;;;22.00;73.00;;;;;;6206850;28;84880;-61
2021/12/03 03:50:45;;;;;;;2.50;2.30;;;22.00;73.00;;;;;;6211947;28;82634;-62
2021/12/03 03:53:48;;;;;;;2.40;2.20;;;22.00;73.00;;;;;;6206769;28;82709;-62
2021/12/03 03:56:50;;;;;;;4.97;2.33;;;22.00;73.00;;;;;;6207090;28;84091;-61
2021/12/03 03:59:54;;;;;;;4.60;2.67;;;22.00;73.20;;;;;;6211130;28;83886;-62
2021/12/03 04:02:56;;;;;;;4.35;2.45;;;22.00;73.30;;;;;;6212504;28;84123;-62
2021/12/03 04:05:58;;;;;;;2.50;2.30;;;22.00;73.20;;;;;;6211599;28;84041;-62
2021/12/03 04:09:01;;;;;;;2.63;2.42;;;22.00;73.10;;;;;;6213635;28;84359;-61
2021/12/03 04:15:24;;;;;;;2.47;2.28;;;22.00;73.00;;;;;;6209649;28;82762;-61
2021/12/03 04:18:26;;;;;;;2.55;2.35;;;22.00;73.10;;;;;;6216091;28;84188;-61
2021/12/03 04:21:28;;;;;;;2.35;2.15;;;22.00;73.00;;;;;;6216131;28;83357;-61
2021/12/03 04:24:32;;;;;;;2.72;2.28;;;22.00;73.90;;;;;;6217567;28;84115;-61
2021/12/03 04:27:35;;;;;;;2.40;2.20;;;22.00;73.00;;;;;;6212102;28;83002;-62
2021/12/03 04:30:37;;;;;;;2.17;1.98;;;22.00;73.00;;;;;;6210935;28;85084;-61
2021/12/03 04:33:39;;;;;;;2.28;2.08;;;22.00;73.00;;;;;;6211523;28;85541;-62
2021/12/03 04:36:41;;;;;;;2.50;2.17;;;22.00;72.80;;;;;;6202432;28;84071;-61
2021/12/03 04:40:03;;;;;;;2.42;2.22;;;22.00;72.80;;;;;;6208582;28;84087;-62
2021/12/03 04:43:06;;;;;;;1.88;1.73;;;22.00;72.70;;;;;;6196492;28;83958;-62
2021/12/03 04:46:08;;;;;;;2.33;2.13;;;22.10;72.70;;;;;;6203428;28;84311;-62
2021/12/03 04:49:10;;;;;;;2.13;1.92;;;22.10;72.60;;;;;;6201626;28;84002;-61
2021/12/03 04:52:12;;;;;;;2.10;1.90;;;22.10;72.50;;;;;;6208897;28;83267;-62
2021/12/03 04:58:35;;;;;;;2.33;2.10;;;22.10;72.30;;;;;;6205326;28;82298;-62
2021/12/03 05:01:39;;;;;;;1.85;1.70;;;22.10;72.20;;;;;;6194895;28;84969;-62
2021/12/03 05:04:41;;;;;;;1.90;1.70;;;22.20;72.20;;;;;;6197874;28;84215;-62
2021/12/03 05:07:54;;;;;;;1.80;1.70;;;22.30;72.20;;;;;;6210842;28;84173;-62
2021/12/03 05:10:58;;;;;;;2.20;2.00;;;22.20;71.90;;;;;;6205256;28;84068;-62
2021/12/03 05:14:00;;;;;;;2.15;1.90;;;22.30;71.90;;;;;;6198792;28;84141;-61
2021/12/03 05:17:02;;;;;;;1.80;1.70;;;22.30;71.80;;;;;;6198424;28;84006;-62
2021/12/03 05:20:05;;;;;;;2.97;2.05;;;22.40;71.80;;;;;;6206037;28;84742;-62
2021/12/03 05:23:09;;;;;;;2.40;2.20;;;22.40;71.80;;;;;;6199683;28;82059;-61
2021/12/03 05:26:12;;;;;;;1.75;1.63;;;22.40;71.80;;;;;;6218433;28;83964;-62
2021/12/03 05:29:15;;;;;;;2.30;1.80;;;22.40;71.80;;;;;;6221056;28;84057;-61
2021/12/03 05:32:19;;;;;;;1.90;1.80;;;22.40;71.80;;;;;;6209082;28;85097;-61
2021/12/03 05:35:21;;;;;;;1.90;1.80;;;22.40;71.90;;;;;;6196523;28;83990;-62
2021/12/03 05:38:23;;;;;;;3.15;1.85;;;22.30;72.00;;;;;;6210258;28;84287;-62
2021/12/03 05:41:27;;;;;;;2.63;2.08;;;22.40;72.30;;;;;;6216409;28;84031;-62
2021/12/03 05:44:30;;;;;;;2.28;1.98;;;22.40;73.20;;;;;;6196425;28;84301;-61
2021/12/03 05:47:32;;;;;;;2.20;1.92;;;22.50;73.10;;;;;;6201772;28;83136;-62
2021/12/03 05:50:35;;;;;;;2.13;1.75;;;22.50;72.70;;;;;;6212985;28;84094;-61
2021/12/03 05:53:37;;;;;;;1.85;1.73;;;22.50;72.30;;;;;;6219299;28;82129;-62
2021/12/03 05:56:40;;;;;;;1.90;1.73;;;22.50;72.20;;;;;;6195683;28;84122;-62
2021/12/03 05:59:42;;;;;;;2.13;1.80;;;22.50;72.10;;;;;;6215149;28;84160;-62
2021/12/03 06:02:45;;;;;;;2.00;1.80;;;22.60;72.20;;;;;;6222551;28;84106;-61
2021/12/03 06:05:47;;;;;;;2.53;1.70;;;22.50;72.10;;;;;;6220070;28;84018;-61
2021/12/03 06:08:50;;;;;;;2.95;1.80;;;22.60;72.10;;;;;;6213764;28;83982;-62
2021/12/03 06:11:53;;;;;;;2.25;1.80;;;22.50;72.00;;;;;;6217467;28;83990;-61
2021/12/03 06:14:55;;;;;;;2.20;1.80;;;22.50;72.00;;;;;;6223011;28;83977;-61
2021/12/03 06:17:58;;;;;;;1.67;1.52;;;22.50;72.00;;;;;;6209773;28;83247;-61
2021/12/03 06:21:00;;;;;;;2.00;1.80;;;22.50;72.00;;;;;;6201116;28;84201;-62
2021/12/03 06:24:02;;;;;;;1.83;1.65;;;22.50;72.00;;;;;;6205870;28;83342;-62
2021/12/03 06:27:07;;;;;;;2.10;1.90;;;22.50;72.00;;;;;;6206212;28;84553;-61
2021/12/03 06:30:12;;;;;;;1.95;1.85;;;22.50;71.80;;;;;;6217726;28;84056;-61
2021/12/03 06:33:14;;;;;;;1.70;1.55;;;22.50;71.80;;;;;;6209251;28;83950;-62
2021/12/03 06:36:16;;;;;;;1.70;1.60;;;22.50;71.80;;;;;;6198881;28;82998;-62
2021/12/03 06:39:18;;;;;;;2.35;1.60;;;22.60;71.80;;;;;;6216953;28;83192;-62
2021/12/03 06:42:22;;;;;;;2.15;1.80;;;22.60;71.60;;;;;;6217730;28;83989;-62
2021/12/03 06:45:24;;;;;;;1.83;1.73;;;22.60;71.60;;;;;;6218704;28;84976;-61
2021/12/03 06:48:26;;;;;;;1.80;1.70;;;22.60;71.50;;;;;;6215259;28;83552;-61
2021/12/03 06:51:29;;;;;;;1.80;1.65;;;22.60;71.50;;;;;;6214205;28;84209;-62
2021/12/03 06:54:33;;;;;;;2.10;1.90;;;22.70;71.50;;;;;;6213686;28;83330;-62
2021/12/03 06:57:37;;;;;;;2.50;1.80;;;22.70;71.40;;;;;;6205954;28;84478;-62
2021/12/03 07:00:39;;;;;;;2.65;1.67;;;22.70;71.50;;;;;;6217417;28;84118;-61
2021/12/03 07:03:41;;;;;;;2.15;1.75;;;22.70;71.40;;;;;;6224182;28;85089;-62
2021/12/03 07:06:43;;;;;;;1.73;1.63;;;22.70;71.30;;;;;;6223513;28;84100;-62
2021/12/03 07:09:45;;;;;;;1.80;1.70;;;22.70;71.30;;;;;;6218775;28;84132;-60
2021/12/03 07:12:48;;;;;;;2.38;1.80;;;22.70;71.30;;;;;;6218101;28;84316;-60
2021/12/03 07:15:51;;;;;;;2.58;1.80;;;22.80;71.30;;;;;;6220709;28;84036;-59
2021/12/03 07:18:53;;;;;;;2.17;1.67;;;22.80;71.20;;;;;;6210887;28;82978;-59
2021/12/03 07:21:55;;;;;;;1.88;1.60;;;22.80;71.10;;;;;;6218275;28;83897;-59
2021/12/03 07:24:57;;;;;;;1.88;1.55;;;22.90;71.20;;;;;;6210674;28;83406;-59
2021/12/03 07:31:20;;;;;;;2.38;1.65;;;22.90;71.10;;;;;;6203826;28;82355;-59
2021/12/03 07:34:22;;;;;;;1.65;1.50;;;22.90;71.00;;;;;;6212226;28;83838;-59
2021/12/03 07:37:24;;;;;;;1.67;1.58;;;22.90;71.00;;;;;;6209504;28;84164;-59
2021/12/03 07:40:26;;;;;;;1.70;1.60;;;22.90;71.00;;;;;;6216574;28;84356;-60
2021/12/03 07:43:29;;;;;;;1.70;1.60;;;22.90;70.90;;;;;;6213306;28;84322;-60
2021/12/03 07:46:31;;;;;;;1.63;1.52;;;23.00;70.90;;;;;;6210575;28;84299;-59
2021/12/03 07:49:35;;;;;;;1.85;1.70;;;23.00;70.90;;;;;;6206220;28;84019;-60
2021/12/03 07:52:37;;;;;;;1.90;1.65;;;22.90;70.80;;;;;;6213215;28;83980;-59
2021/12/03 07:55:39;;;;;;;1.60;1.50;;;23.00;70.80;;;;;;6207630;28;83465;-59
2021/12/03 07:58:42;;;;;;;2.17;1.60;;;23.00;70.80;;;;;;6219961;28;83994;-59
2021/12/03 08:01:45;;;;;;;1.63;1.40;;;23.00;70.80;;;;;;6218143;28;82754;-60
2021/12/03 08:04:47;;;;;;;1.60;1.50;;;23.00;70.80;;;;;;6199490;28;84911;-59
2021/12/03 08:07:50;;;;;;;1.50;1.40;;;23.00;70.80;;;;;;6211217;28;84039;-60
2021/12/03 08:10:53;;;;;;;1.60;1.50;;;23.00;71.60;;;;;;6229985;28;84374;-59
2021/12/03 08:13:56;;;;;;;2.25;1.60;;;23.00;70.70;;;;;;6220626;28;82796;-59
2021/12/03 08:16:58;;;;;;;1.50;1.40;;;23.10;70.60;;;;;;6220744;28;84840;-59
2021/12/03 08:20:00;;;;;;;1.73;1.42;;;23.10;70.60;;;;;;6215515;28;82613;-59
2021/12/03 08:23:03;;;;;;;1.70;1.40;;;23.10;70.60;;;;;;6207027;28;83042;-59
2021/12/03 08:26:05;;;;;;;1.65;1.55;;;23.10;70.60;;;;;;6201315;28;83234;-62
2021/12/03 08:29:08;;;;;;;1.50;1.40;;;23.10;70.60;;;;;;6204905;28;84007;-61
2021/12/03 08:32:11;;;;;;;1.60;1.50;;;23.10;70.60;;;;;;6203941;28;83005;-62
2021/12/03 08:35:13;;;;;;;1.70;1.60;;;23.10;70.50;;;;;;6210933;28;84960;-62
2021/12/03 08:38:15;;;;;;;1.60;1.50;;;23.10;70.50;;;;;;6207335;28;84087;-62
2021/12/03 08:41:18;;;;;;;1.50;1.40;;;23.20;70.60;;;;;;6212858;28;83716;-61
2021/12/03 08:44:22;;;;;;;1.55;1.45;;;23.10;70.40;;;;;;6201831;28;83888;-61
2021/12/03 08:47:24;;;;;;;1.63;1.52;;;23.20;70.50;;;;;;6202409;28;82870;-61
2021/12/03 08:50:30;;;;;;;1.60;1.50;;;23.20;70.40;;;;;;6211213;28;84074;-62
2021/12/03 08:56:51;;;;;;;1.50;1.40;;;23.20;70.30;;;;;;6211847;28;81483;-62
2021/12/03 08:59:56;;;;;;;1.70;1.33;;;23.20;70.60;;;;;;6200874;28;84149;-62
2021/12/03 09:02:58;;;;;;;1.85;1.40;;;23.20;70.30;;;;;;6206359;28;82922;-62
2021/12/03 09:06:00;;;;;;;1.75;1.40;;;23.30;70.30;;;;;;6206941;28;87116;-62
2021/12/03 09:09:04;;;;;;;1.77;1.50;;;23.20;70.30;;;;;;6212011;28;82875;-61
2021/12/03 09:12:08;;;;;;;1.55;1.40;;;23.30;70.30;;;;;;6208657;28;84184;-62
2021/12/03 09:15:14;;;;;;;1.50;1.40;;;23.30;70.30;;;;;;6228865;28;84093;-61
2021/12/03 09:18:30;;;;;;;1.40;1.30;;;23.30;70.20;;;;;;6208671;28;84185;-61
2021/12/03 09:21:34;;;;;;;1.38;1.23;;;23.30;70.20;;;;;;6196915;28;82902;-61
2021/12/03 09:24:37;;;;;;;1.30;1.20;;;23.30;70.10;;;;;;6201875;28;83314;-61
2021/12/03 09:27:39;;;;;;;1.40;1.30;;;23.30;70.10;;;;;;6187665;28;82263;-62
2021/12/03 09:30:44;;;;;;;1.40;1.20;;;23.30;70.10;;;;;;6202482;28;84023;-61
2021/12/03 09:33:48;;;;;;;2.00;1.67;;;23.30;70.10;;;;;;6207078;28;84007;-62
2021/12/03 09:36:50;;;;;;;1.30;1.20;;;23.30;70.10;;;;;;6209532;28;85565;-62
2021/12/03 09:39:54;;;;;;;1.23;1.13;;;23.40;70.10;;;;;;6208710;28;84069;-61
2021/12/03 09:42:56;;;;;;;1.30;1.20;;;23.30;70.00;;;;;;6219063;28;82854;-61
2021/12/03 09:46:06;;;;;;;1.70;1.60;;;23.40;70.10;;;;;;6209544;28;84020;-62
2021/12/03 09:52:39;;;;;;;1.30;1.20;;;23.40;70.00;;;;;;6200136;28;83436;-61
2021/12/03 09:55:42;;;;;;;1.23;1.13;;;23.40;70.00;;;;;;6205527;28;82989;-61
2021/12/03 10:02:13;;;;;;;1.25;1.15;;;23.40;70.00;;;;;;6200018;28;83578;-61
2021/12/03 10:15:32;;;;;;;1.30;1.20;;;23.40;70.00;;;;;;6168648;28;82597;-61
2021/12/03 10:18:45;;;;;;;1.35;1.25;;;23.40;70.00;;;;;;6217763;28;84068;-61
2021/12/03 10:25:24;;;;;;;1.20;1.10;;;23.40;69.90;;;;;;6213333;28;82784;-62
2021/12/03 10:38:37;;;;;;;1.20;1.10;;;23.40;69.80;;;;;;6207922;28;83142;-62
2021/12/03 10:41:53;;;;;;;1.40;1.30;;;23.50;69.80;;;;;;6198425;28;85296;-62
2021/12/03 10:48:33;;;;;;;1.38;1.27;;;23.50;69.80;;;;;;6208162;28;82699;-62
2021/12/03 14:07:39;;;;;;;1.90;1.80;;;23.80;70.80;;;;;;6168823;28;83640;-64
2021/12/03 14:37:57;;;;;;;7.07;3.20;;;23.60;71.40;;;;;;6217153;28;82278;-61
2021/12/03 14:41:18;;;;;;;5.25;2.65;;;23.60;71.00;;;;;;6204146;28;83767;-62
2021/12/03 14:44:25;;;;;;;5.20;2.67;;;23.50;70.30;;;;;;6195772;28;84341;-61
2021/12/03 14:51:15;;;;;;;5.63;2.88;;;23.50;70.10;;;;;;6201910;28;82813;-61
2021/12/03 14:57:55;;;;;;;5.20;2.58;;;23.40;69.20;;;;;;6170488;28;83654;-61
2021/12/03 15:01:01;;;;;;;4.88;2.47;;;23.40;68.60;;;;;;6202259;28;84299;-61
2021/12/03 15:04:28;;;;;;;5.75;2.22;;;23.40;68.60;;;;;;6203731;28;83476;-64
2021/12/03 15:07:42;;;;;;;4.80;2.20;;;23.30;69.10;;;;;;6204929;28;83996;-64
2021/12/03 15:11:04;;;;;;;4.22;2.22;;;23.30;68.70;;;;;;6209624;28;84329;-64
2021/12/03 15:30:54;;;;;;;2.75;1.95;;;23.20;67.30;;;;;;6207907;28;82587;-62
2021/12/03 15:34:01;;;;;;;3.50;2.03;;;23.10;67.20;;;;;;6209563;28;82706;-64
2021/12/03 15:37:31;;;;;;;4.28;1.90;;;23.10;67.20;;;;;;6215693;28;83302;-63
2021/12/03 15:57:42;;;;;;;2.53;1.75;;;23.10;69.60;;;;;;6194629;28;82488;-62
2021/12/03 16:04:11;;;;;;;2.30;1.90;;;23.00;69.90;;;;;;6208033;28;83149;-62
2021/12/03 16:07:22;;;;;;;3.83;2.10;;;23.00;70.00;;;;;;6221154;28;84087;-62
2021/12/03 16:10:28;;;;;;;3.30;1.80;;;23.00;70.10;;;;;;6210495;28;83201;-65
2021/12/03 16:13:43;;;;;;;2.55;1.60;;;23.00;70.20;;;;;;6211643;28;84019;-62
2021/12/03 16:17:04;;;;;;;2.78;1.67;;;23.00;70.30;;;;;;6216082;28;83802;-62
2021/12/03 16:23:47;;;;;;;2.50;1.67;;;23.00;70.50;;;;;;6213047;28;82413;-62
2021/12/03 16:43:55;;;;;;;2.22;1.90;;;22.80;70.70;;;;;;6210692;28;81533;-63
2021/12/03 16:47:03;;;;;;;2.90;1.80;;;22.90;70.80;;;;;;6210813;28;84095;-63
2021/12/03 16:50:46;;;;;;;3.75;1.73;;;22.80;70.70;;;;;;6210463;28;84013;-62
2021/12/03 16:53:51;;;;;;;2.75;1.95;;;22.80;70.80;;;;;;6195609;28;85103;-63
2021/12/03 16:56:55;;;;;;;4.40;2.17;;;22.80;70.80;;;;;;6195278;28;82792;-63
2021/12/03 16:59:58;;;;;;;2.80;1.83;;;22.80;71.10;;;;;;6194916;28;87240;-62
2021/12/03 17:03:06;;;;;;;3.33;2.00;;;22.80;71.30;;;;;;6198001;28;84413;-62
2021/12/03 17:12:56;;;;;;;2.13;1.92;;;22.80;72.00;;;;;;6204718;28;83387;-62
2021/12/03 17:47:20;;;;;;;3.13;1.98;;;22.70;73.20;;;;;;6200687;28;82644;-62
2021/12/03 17:54:10;;;;;;;2.50;2.00;;;22.70;73.50;;;;;;6123525;28;82232;-62
2021/12/03 17:57:22;;;;;;;4.45;2.22;;;22.70;73.70;;;;;;6196128;28;84009;-62
2021/12/03 18:00:31;;;;;;;2.78;2.22;;;22.70;73.80;;;;;;6192895;28;85117;-62
2021/12/03 18:03:37;;;;;;;4.05;2.10;;;22.70;74.00;;;;;;6196175;28;83952;-62
2021/12/03 18:17:18;;;;;;;3.55;2.08;;;22.70;74.30;;;;;;6202346;28;82275;-62
2021/12/03 18:57:14;;;;;;;7.35;2.60;;;22.70;79.00;;;;;;6188163;28;82368;-64
2021/12/03 19:00:18;;;;;;;22.42;6.38;;;22.70;77.70;;;;;;6197775;28;83835;-64
2021/12/03 19:03:26;;;;;;;29.10;6.88;;;22.70;80.00;;;;;;6191531;28;84006;-63
2021/12/03 19:06:31;;;;;;;16.15;5.93;;;22.80;82.30;;;;;;6218211;28;85104;-63
2021/12/03 19:09:37;;;;;;;12.73;4.80;;;22.90;81.10;;;;;;6222808;28;84107;-62
2021/12/03 19:12:42;;;;;;;8.75;4.03;;;22.90;79.80;;;;;;6203957;28;84131;-63
2021/12/03 19:15:48;;;;;;;8.23;4.00;;;22.90;78.90;;;;;;6214529;28;83793;-63
2021/12/03 19:18:52;;;;;;;8.80;3.92;;;22.90;78.10;;;;;;6192120;28;84513;-62
2021/12/03 19:21:57;;;;;;;8.90;3.70;;;22.90;78.60;;;;;;6193426;28;83876;-63
2021/12/03 19:24:59;;;;;;;9.95;4.10;;;22.80;77.90;;;;;;6193018;28;83998;-64
2021/12/03 19:28:01;;;;;;;13.98;4.75;;;22.80;77.60;;;;;;6192569;28;82967;-63
2021/12/03 19:31:06;;;;;;;11.52;5.35;;;22.80;77.40;;;;;;6205109;28;82949;-64
2021/12/03 19:34:08;;;;;;;15.35;5.72;;;22.70;77.50;;;;;;6204136;28;84452;-63
2021/12/03 19:37:11;;;;;;;13.77;5.68;;;22.70;77.70;;;;;;6197544;28;84988;-63
2021/12/03 19:40:13;;;;;;;17.13;6.43;;;22.70;77.80;;;;;;6191989;28;84058;-62
2021/12/03 19:43:17;;;;;;;14.48;5.97;;;22.70;78.10;;;;;;6198969;28;82393;-63
2021/12/03 19:46:29;;;;;;;19.20;6.50;;;22.70;78.80;;;;;;6195136;28;83827;-62
2021/12/03 19:49:41;;;;;;;15.90;6.45;;;22.70;78.40;;;;;;6212236;28;84089;-62
2021/12/03 19:52:48;;;;;;;14.90;5.70;;;22.70;78.40;;;;;;6200228;28;83892;-63
2021/12/03 19:55:50;;;;;;;12.40;4.93;;;22.70;78.30;;;;;;6193566;28;84380;-62
2021/12/03 19:58:53;;;;;;;10.80;4.97;;;22.70;77.90;;;;;;6191514;28;83589;-62
2021/12/03 20:01:57;;;;;;;14.18;5.57;;;22.70;77.70;;;;;;6209609;28;82698;-62
2021/12/03 20:05:00;;;;;;;14.65;5.10;;;22.70;77.60;;;;;;6206540;28;84048;-63
2021/12/03 20:08:04;;;;;;;18.92;6.28;;;22.70;77.50;;;;;;6207635;28;84899;-63
2021/12/03 20:11:08;;;;;;;23.88;7.65;;;22.70;77.70;;;;;;6206539;28;83997;-63
2021/12/03 20:14:12;;;;;;;25.27;9.35;;;22.70;78.10;;;;;;6206405;28;82990;-62
2021/12/03 20:17:20;;;;;;;27.83;9.55;;;22.70;78.60;;;;;;6198743;28;84142;-62
2021/12/03 20:20:23;;;;;;;22.35;8.55;;;22.70;80.10;;;;;;6218067;28;82956;-63
2021/12/03 20:23:34;;;;;;;19.70;8.05;;;22.70;79.30;;;;;;6197275;28;84019;-62
2021/12/03 20:26:46;;;;;;;18.38;7.05;;;22.70;79.10;;;;;;6197280;28;84079;-63
2021/12/03 20:29:50;;;;;;;15.88;6.47;;;22.70;78.90;;;;;;6197907;28;83257;-63
2021/12/03 20:33:05;;;;;;;16.20;6.53;;;22.70;78.80;;;;;;6215405;28;83989;-62
2021/12/03 20:36:20;;;;;;;13.10;5.78;;;22.70;78.60;;;;;;6204811;28;84130;-63
2021/12/03 20:39:24;;;;;;;12.82;5.40;;;22.70;78.40;;;;;;6214548;28;84624;-63
2021/12/03 20:42:30;;;;;;;11.73;5.60;;;22.70;78.30;;;;;;6230012;28;83780;-62
2021/12/03 20:45:55;;;;;;;9.52;4.93;;;22.70;78.10;;;;;;6228959;28;84119;-62
2021/12/03 20:49:11;;;;;;;11.63;5.15;;;22.70;78.00;;;;;;6213944;28;84560;-63
2021/12/03 20:52:30;;;;;;;9.35;4.82;;;22.80;77.90;;;;;;6229820;28;83952;-62
2021/12/03 21:08:52;;;;;;;7.93;4.13;;;22.70;77.20;;;;;;6199169;28;82337;-64
2021/12/03 21:11:58;;;;;;;7.95;4.00;;;22.70;77.00;;;;;;6192301;28;85680;-63
2021/12/03 21:15:06;;;;;;;9.23;4.15;;;22.70;77.00;;;;;;6195232;28;83090;-63
2021/12/03 21:18:14;;;;;;;9.60;4.22;;;22.70;76.90;;;;;;6197985;28;84007;-64
2021/12/03 21:21:25;;;;;;;9.40;4.15;;;22.70;76.90;;;;;;6201342;28;82907;-63
2021/12/03 21:24:32;;;;;;;7.57;3.55;;;22.70;76.70;;;;;;6200766;28;84125;-64
2021/12/03 21:27:38;;;;;;;7.57;3.60;;;22.70;76.70;;;;;;6199501;28;82630;-64
2021/12/03 21:30:47;;;;;;;6.13;3.53;;;22.70;76.70;;;;;;6194658;28;83772;-64
2021/12/03 21:43:45;;;;;;;6.55;3.63;;;22.70;76.60;;;;;;6199112;28;84980;-64
2021/12/03 21:46:47;;;;;;;6.72;3.50;;;22.60;76.50;;;;;;6195160;28;84150;-63
2021/12/03 21:49:49;;;;;;;6.70;3.60;;;22.70;76.40;;;;;;6193852;28;84123;-63
2021/12/03 21:52:53;;;;;;;5.43;3.75;;;22.70;76.30;;;;;;6200750;28;83162;-63
2021/12/03 21:55:55;;;;;;;7.45;3.70;;;22.60;76.20;;;;;;6212305;28;82772;-63
2021/12/03 21:58:57;;;;;;;5.55;3.33;;;22.60;75.90;;;;;;6214103;28;84041;-63
2021/12/03 22:01:59;;;;;;;5.85;3.28;;;22.60;75.90;;;;;;6210334;28;84053;-62
2021/12/03 22:05:02;;;;;;;6.00;3.65;;;22.60;75.90;;;;;;6204613;28;83229;-63
2021/12/03 22:08:10;;;;;;;5.15;3.70;;;22.70;75.70;;;;;;6196267;28;82785;-62
2021/12/03 22:11:12;;;;;;;5.50;3.17;;;22.60;75.50;;;;;;6190387;28;84316;-62
2021/12/03 22:14:14;;;;;;;6.18;3.20;;;22.60;75.50;;;;;;6193581;28;85417;-63
2021/12/03 22:17:16;;;;;;;5.85;3.60;;;22.60;75.40;;;;;;6210035;28;84020;-63
2021/12/03 22:20:19;;;;;;;5.18;3.15;;;22.60;75.40;;;;;;6208546;28;84014;-63
2021/12/03 22:23:22;;;;;;;5.45;3.42;;;22.50;75.30;;;;;;6210582;28;85912;-62
2021/12/03 22:26:26;;;;;;;5.95;3.33;;;22.50;75.20;;;;;;6229510;28;84017;-63
2021/12/03 22:29:28;;;;;;;5.63;3.35;;;22.50;75.20;;;;;;6218045;28;84085;-63
2021/12/03 22:32:30;;;;;;;4.75;3.17;;;22.50;75.10;;;;;;6219873;28;83792;-63
2021/12/03 22:35:32;;;;;;;5.35;3.30;;;22.50;76.00;;;;;;6210728;28;83320;-63
2021/12/03 22:38:35;;;;;;;5.57;3.70;;;22.50;75.00;;;;;;6217820;28;84245;-63
2021/12/03 22:41:40;;;;;;;5.45;3.70;;;22.50;75.00;;;;;;6198660;28;84064;-63
2021/12/03 22:44:42;;;;;;;6.80;4.20;;;22.50;74.90;;;;;;6218017;28;85039;-63
2021/12/03 22:47:53;;;;;;;6.22;4.30;;;22.50;74.90;;;;;;6207504;28;83959;-63
2021/12/03 22:51:03;;;;;;;5.50;4.18;;;22.50;74.90;;;;;;6194311;28;83956;-63
2021/12/03 22:54:06;;;;;;;5.97;4.63;;;22.50;74.80;;;;;;6207787;28;83975;-63
2021/12/03 22:57:10;;;;;;;6.95;4.78;;;22.50;74.80;;;;;;6210733;28;83970;-63
2021/12/03 23:00:57;;;;;;;6.32;4.93;;;22.50;74.90;;;;;;6208704;28;84097;-62
2021/12/03 23:04:18;;;;;;;6.97;5.20;;;22.50;74.90;;;;;;6190467;28;84508;-63
2021/12/03 23:07:20;;;;;;;6.90;5.45;;;22.50;74.90;;;;;;6207769;28;83375;-63
2021/12/03 23:10:23;;;;;;;7.32;5.70;;;22.40;74.80;;;;;;6207024;28;84126;-62
2021/12/03 23:13:26;;;;;;;7.25;5.47;;;22.40;74.70;;;;;;6210970;28;84095;-63
2021/12/03 23:16:28;;;;;;;6.53;5.82;;;22.40;74.80;;;;;;6221224;28;85344;-62
2021/12/03 23:19:30;;;;;;;6.55;5.93;;;22.40;74.80;;;;;;6209049;28;84307;-63
2021/12/03 23:22:33;;;;;;;7.93;6.63;;;22.40;74.80;;;;;;6207770;28;83336;-62
2021/12/03 23:25:37;;;;;;;7.53;6.38;;;22.40;74.70;;;;;;6208079;28;84111;-63
2021/12/03 23:28:43;;;;;;;8.15;6.90;;;22.40;74.80;;;;;;6207104;28;83983;-62